Terminal Aerodrome Forecast
Issued by NWS

Home | Current Version | Previous Version | Text Only | Print | Product List | Glossary On
Versions: 1 2 3 4 5 6 7 8 9 10 11 12 13 14 15 16 17 18 19 20 21 22 23 24 25 26
000
FTUS44 KMAF 041100
TAFCNM
TAF
KCNM 041133Z 0412/0512 25011KT P6SM OVC060
     FM042000 06014G20KT 5SM -RA BR OVC012
     FM042300 03015G25KT 1SM -SN BR OVC008=

USA.gov is the U.S. government's official web portal to all federal, state and local government web resources and services.